Time;durP1;ratioP1;P1;durP2;ratioP2;P2;SDS_P1;SDS_P2;PMS_P1;PMS_P2;Temp;Humidity;BMP_temperature;BMP_pressure;BME280_temperature;BME280_humidity;BME280_pressure;Samples;Min_cycle;Max_cycle;Signal;HPM_P1;HPM_P2
2023/12/10 00:01:18;;;;;;;4.53;3.10;;;;;;;;;;6275979;22;20132;-49
2023/12/10 00:03:45;;;;;;;3.20;2.70;;;;;;;;;;6275300;22;20149;-52
2023/12/10 00:06:11;;;;;;;4.63;3.47;;;;;;;;;;6274337;22;20183;-53
2023/12/10 00:08:40;;;;;;;3.60;3.10;;;;;;;;;;6274049;22;20164;-54
2023/12/10 00:11:06;;;;;;;4.13;3.10;;;;;;;;;;6274687;22;20124;-50
2023/12/10 00:13:32;;;;;;;5.30;3.30;;;;;;;;;;6275554;22;20277;-51
2023/12/10 00:15:59;;;;;;;4.30;3.20;;;;;;;;;;6272182;22;20136;-51
2023/12/10 00:18:25;;;;;;;3.40;3.10;;;;;;;;;;6272984;22;20231;-54
2023/12/10 00:20:53;;;;;;;3.63;3.20;;;;;;;;;;6273029;22;20194;-51
2023/12/10 00:23:19;;;;;;;4.77;3.23;;;;;;;;;;6272622;22;20232;-55
2023/12/10 00:25:45;;;;;;;4.10;3.70;;;;;;;;;;6273892;22;20159;-51
2023/12/10 00:28:13;;;;;;;4.43;3.60;;;;;;;;;;6274033;22;20249;-50
2023/12/10 00:30:41;;;;;;;3.93;3.50;;;;;;;;;;6275145;22;20223;-55
2023/12/10 00:33:08;;;;;;;3.73;3.13;;;;;;;;;;6276007;22;20121;-54
2023/12/10 00:35:35;;;;;;;3.60;3.30;;;;;;;;;;6275234;22;20144;-54
2023/12/10 00:38:02;;;;;;;4.23;3.27;;;;;;;;;;6277008;22;20195;-53
2023/12/10 00:40:28;;;;;;;6.27;3.60;;;;;;;;;;6276537;22;20144;-50
2023/12/10 00:42:58;;;;;;;4.23;3.40;;;;;;;;;;6276448;22;20243;-53
2023/12/10 00:45:24;;;;;;;3.70;3.27;;;;;;;;;;6275929;22;20521;-51
2023/12/10 00:47:51;;;;;;;6.17;3.57;;;;;;;;;;6276167;22;20156;-54
2023/12/10 00:50:19;;;;;;;3.77;3.07;;;;;;;;;;6275090;22;20136;-51
2023/12/10 00:52:46;;;;;;;4.83;3.27;;;;;;;;;;6275823;22;20597;-52
2023/12/10 00:55:12;;;;;;;4.50;3.23;;;;;;;;;;6276167;22;20148;-53
2023/12/10 00:57:41;;;;;;;3.40;3.10;;;;;;;;;;6275300;22;20150;-52
2023/12/10 01:00:07;;;;;;;5.50;3.60;;;;;;;;;;6275095;22;20159;-53
2023/12/10 01:02:34;;;;;;;3.63;3.13;;;;;;;;;;6275064;22;20282;-54
2023/12/10 01:05:02;;;;;;;3.70;3.30;;;;;;;;;;6275411;22;20194;-53
2023/12/10 01:07:29;;;;;;;3.20;2.70;;;;;;;;;;6275195;22;20160;-52
2023/12/10 01:09:58;;;;;;;3.97;3.40;;;;;;;;;;6276174;22;20545;-51
2023/12/10 01:12:36;;;;;;;3.03;2.73;;;;;;;;;;6274187;22;20395;-51
2023/12/10 01:15:05;;;;;;;4.87;3.60;;;;;;;;;;6274174;22;20144;-52
2023/12/10 01:17:31;;;;;;;3.40;3.10;;;;;;;;;;6275359;22;20172;-57
2023/12/10 01:19:57;;;;;;;3.80;3.40;;;;;;;;;;6275377;22;20147;-53
2023/12/10 01:22:23;;;;;;;4.47;3.90;;;;;;;;;;6276935;22;20211;-58
2023/12/10 01:24:49;;;;;;;3.50;2.90;;;;;;;;;;6276128;22;20136;-56
2023/12/10 01:27:15;;;;;;;3.23;2.93;;;;;;;;;;6275081;22;20202;-56
2023/12/10 01:29:41;;;;;;;4.67;3.57;;;;;;;;;;6274833;22;20202;-57
2023/12/10 01:32:07;;;;;;;2.90;2.40;;;;;;;;;;6275320;22;20231;-58
2023/12/10 01:34:58;;;;;;;3.33;3.03;;;;;;;;;;6275809;22;20460;-58
2023/12/10 01:37:24;;;;;;;3.57;2.97;;;;;;;;;;6208242;22;20175;-58
2023/12/10 01:39:50;;;;;;;4.17;3.20;;;;;;;;;;6279387;22;20234;-58
2023/12/10 01:42:17;;;;;;;3.03;2.50;;;;;;;;;;6279902;22;20139;-54
2023/12/10 01:44:43;;;;;;;3.33;3.03;;;;;;;;;;6279013;22;20492;-57
2023/12/10 01:47:10;;;;;;;3.13;2.83;;;;;;;;;;6279369;22;20155;-58
2023/12/10 01:49:37;;;;;;;5.03;3.13;;;;;;;;;;6280135;22;20168;-59
2023/12/10 01:52:07;;;;;;;3.27;2.97;;;;;;;;;;6279203;22;20143;-59
2023/12/10 01:54:33;;;;;;;3.63;3.07;;;;;;;;;;6307034;22;20124;-56
2023/12/10 01:56:59;;;;;;;3.80;3.33;;;;;;;;;;6280861;22;20147;-59
2023/12/10 01:59:26;;;;;;;2.93;2.63;;;;;;;;;;6307712;22;20139;-57
2023/12/10 02:01:53;;;;;;;3.53;3.10;;;;;;;;;;6280010;22;20143;-58
2023/12/10 02:04:20;;;;;;;3.60;3.00;;;;;;;;;;6307173;22;20218;-58
2023/12/10 02:06:50;;;;;;;3.00;2.70;;;;;;;;;;6307270;22;20532;-58
2023/12/10 02:09:18;;;;;;;3.23;2.93;;;;;;;;;;6304333;22;20155;-57
2023/12/10 02:11:45;;;;;;;3.67;3.23;;;;;;;;;;6299062;22;20131;-59
2023/12/10 02:14:11;;;;;;;3.23;2.60;;;;;;;;;;6301915;22;20135;-57
2023/12/10 02:16:38;;;;;;;3.13;2.83;;;;;;;;;;6279176;22;20167;-59
2023/12/10 02:19:04;;;;;;;3.13;2.83;;;;;;;;;;6281038;22;20238;-59
2023/12/10 02:21:32;;;;;;;3.17;2.50;;;;;;;;;;6280559;22;20178;-59
2023/12/10 02:24:06;;;;;;;2.70;2.50;;;;;;;;;;6306574;22;20191;-59
2023/12/10 02:26:32;;;;;;;3.50;2.67;;;;;;;;;;6279953;22;20144;-59
2023/12/10 02:28:58;;;;;;;3.17;2.87;;;;;;;;;;6305195;22;20238;-59
2023/12/10 02:31:25;;;;;;;3.87;2.50;;;;;;;;;;6280614;22;20143;-56
2023/12/10 02:33:51;;;;;;;3.80;3.20;;;;;;;;;;6280172;22;20151;-59
2023/12/10 02:36:17;;;;;;;3.30;2.50;;;;;;;;;;6279727;22;20222;-56
2023/12/10 02:38:44;;;;;;;2.97;2.60;;;;;;;;;;6274489;22;20585;-59
2023/12/10 02:41:11;;;;;;;3.27;2.97;;;;;;;;;;6274439;22;20270;-56
2023/12/10 02:43:41;;;;;;;2.97;2.73;;;;;;;;;;6275665;22;20276;-59
2023/12/10 02:46:07;;;;;;;3.43;2.47;;;;;;;;;;6274732;22;20170;-57
2023/12/10 02:48:33;;;;;;;2.60;2.40;;;;;;;;;;6275076;22;20168;-59
2023/12/10 02:50:59;;;;;;;3.90;3.03;;;;;;;;;;6274798;22;20163;-59
2023/12/10 02:53:26;;;;;;;3.27;2.93;;;;;;;;;;6276659;22;20215;-57
2023/12/10 02:55:53;;;;;;;3.70;3.30;;;;;;;;;;6275006;22;20185;-59
2023/12/10 02:58:19;;;;;;;3.23;2.90;;;;;;;;;;6275352;22;20236;-58
2023/12/10 03:00:45;;;;;;;4.47;3.03;;;;;;;;;;6275511;22;20140;-56
2023/12/10 03:03:13;;;;;;;4.33;3.00;;;;;;;;;;6275331;22;20199;-57
2023/12/10 03:05:40;;;;;;;4.23;3.13;;;;;;;;;;6275814;22;20151;-55
2023/12/10 03:08:06;;;;;;;4.90;3.10;;;;;;;;;;6275081;22;20545;-59
2023/12/10 03:10:32;;;;;;;10.07;3.77;;;;;;;;;;6274967;22;20121;-58
2023/12/10 03:12:58;;;;;;;5.23;3.57;;;;;;;;;;6274957;22;20129;-59
2023/12/10 03:15:25;;;;;;;4.40;3.23;;;;;;;;;;6273136;22;20128;-59
2023/12/10 03:17:51;;;;;;;4.90;3.20;;;;;;;;;;6273938;22;20147;-59
2023/12/10 03:20:17;;;;;;;4.37;3.07;;;;;;;;;;6274150;22;20152;-57
2023/12/10 03:22:43;;;;;;;4.37;3.77;;;;;;;;;;6275811;22;20136;-58
2023/12/10 03:25:09;;;;;;;5.37;3.43;;;;;;;;;;6276351;22;20144;-57
2023/12/10 03:27:35;;;;;;;5.97;3.30;;;;;;;;;;6275948;22;20147;-56
2023/12/10 03:30:02;;;;;;;8.30;3.83;;;;;;;;;;6276255;22;20227;-59
2023/12/10 03:32:28;;;;;;;6.13;3.80;;;;;;;;;;6276449;22;20186;-59
2023/12/10 03:34:54;;;;;;;8.30;3.33;;;;;;;;;;6276742;22;20132;-57
2023/12/10 03:37:21;;;;;;;9.30;4.10;;;;;;;;;;6278200;22;20176;-59
2023/12/10 03:39:49;;;;;;;6.00;3.53;;;;;;;;;;6306775;22;20138;-59
2023/12/10 03:42:15;;;;;;;9.23;4.37;;;;;;;;;;6306455;22;20600;-57
2023/12/10 03:44:41;;;;;;;8.03;4.50;;;;;;;;;;6305913;22;20619;-57
2023/12/10 03:47:07;;;;;;;6.60;3.43;;;;;;;;;;6279756;22;20201;-58
2023/12/10 03:49:34;;;;;;;9.73;3.90;;;;;;;;;;6278593;22;20175;-57
2023/12/10 03:52:00;;;;;;;8.57;3.80;;;;;;;;;;6306269;22;20140;-59
2023/12/10 03:54:26;;;;;;;9.43;5.13;;;;;;;;;;6280271;22;20140;-59
2023/12/10 03:56:52;;;;;;;11.40;4.50;;;;;;;;;;6280739;22;20734;-58
2023/12/10 03:59:18;;;;;;;13.17;4.97;;;;;;;;;;6307605;22;20128;-57
2023/12/10 04:01:44;;;;;;;10.90;4.63;;;;;;;;;;6281886;22;20153;-59
2023/12/10 04:04:11;;;;;;;7.90;4.30;;;;;;;;;;6308610;22;20124;-56
2023/12/10 04:06:41;;;;;;;9.80;4.60;;;;;;;;;;6280615;22;20151;-55
2023/12/10 04:09:08;;;;;;;12.33;5.10;;;;;;;;;;6308944;22;20252;-59
2023/12/10 04:11:35;;;;;;;9.03;3.80;;;;;;;;;;6281930;22;20647;-58
2023/12/10 04:14:01;;;;;;;14.40;4.77;;;;;;;;;;6282649;22;20177;-59
2023/12/10 04:16:29;;;;;;;12.70;4.07;;;;;;;;;;6280729;22;20140;-57
2023/12/10 04:18:55;;;;;;;11.30;4.33;;;;;;;;;;6280707;22;20552;-59
2023/12/10 04:21:24;;;;;;;13.93;4.20;;;;;;;;;;6281736;22;20148;-58
2023/12/10 04:23:51;;;;;;;8.87;3.83;;;;;;;;;;6307833;22;20128;-59
2023/12/10 04:26:17;;;;;;;10.97;4.20;;;;;;;;;;6282339;22;20139;-57
2023/12/10 04:29:01;;;;;;;18.17;4.20;;;;;;;;;;6283617;22;20182;-58
2023/12/10 04:31:28;;;;;;;21.17;4.40;;;;;;;;;;6282482;22;20135;-58
2023/12/10 04:33:54;;;;;;;24.73;4.87;;;;;;;;;;6308213;22;20565;-58
2023/12/10 04:36:20;;;;;;;17.13;5.10;;;;;;;;;;6282578;22;20148;-58
2023/12/10 04:38:47;;;;;;;19.10;4.73;;;;;;;;;;6277062;22;20374;-58
2023/12/10 04:41:13;;;;;;;17.73;4.60;;;;;;;;;;6278081;22;20175;-56
2023/12/10 04:43:39;;;;;;;26.73;5.30;;;;;;;;;;6278096;22;20423;-57
2023/12/10 04:46:06;;;;;;;26.03;5.17;;;;;;;;;;6276986;22;20201;-57
2023/12/10 04:48:35;;;;;;;28.13;6.10;;;;;;;;;;6277764;22;20168;-57
2023/12/10 04:51:01;;;;;;;22.90;4.50;;;;;;;;;;6277323;22;20213;-58
2023/12/10 04:53:27;;;;;;;20.90;4.43;;;;;;;;;;6277252;22;20144;-56
2023/12/10 04:55:53;;;;;;;29.47;4.63;;;;;;;;;;6277597;22;20160;-58
2023/12/10 04:58:19;;;;;;;26.87;5.73;;;;;;;;;;6277909;22;20154;-56
2023/12/10 05:00:45;;;;;;;27.33;4.50;;;;;;;;;;6277400;22;20125;-58
2023/12/10 05:03:12;;;;;;;24.47;4.77;;;;;;;;;;6277213;22;20211;-58
2023/12/10 05:05:38;;;;;;;23.03;4.53;;;;;;;;;;6276370;22;20152;-57
2023/12/10 05:08:04;;;;;;;21.97;4.50;;;;;;;;;;6277127;22;20561;-59
2023/12/10 05:10:30;;;;;;;20.33;4.27;;;;;;;;;;6277738;22;20120;-58
2023/12/10 05:12:59;;;;;;;12.70;3.20;;;;;;;;;;6276918;22;20211;-58
2023/12/10 05:15:25;;;;;;;20.83;3.60;;;;;;;;;;6276962;22;20124;-55
2023/12/10 05:17:51;;;;;;;19.83;3.83;;;;;;;;;;6275007;22;20156;-59
2023/12/10 05:20:17;;;;;;;19.27;5.23;;;;;;;;;;6274016;22;20152;-59
2023/12/10 05:22:43;;;;;;;14.70;3.60;;;;;;;;;;6275365;22;20128;-58
2023/12/10 05:25:11;;;;;;;16.60;4.13;;;;;;;;;;6274529;22;20137;-58
2023/12/10 05:27:37;;;;;;;12.43;3.80;;;;;;;;;;6274901;22;20148;-57
2023/12/10 05:30:03;;;;;;;15.97;4.27;;;;;;;;;;6274882;22;20159;-58
2023/12/10 05:32:30;;;;;;;20.00;5.30;;;;;;;;;;6276058;22;20195;-59
2023/12/10 05:34:56;;;;;;;19.73;4.77;;;;;;;;;;6276284;22;20132;-57
2023/12/10 05:37:22;;;;;;;21.43;5.30;;;;;;;;;;6278890;22;20223;-58
2023/12/10 05:39:48;;;;;;;12.90;4.47;;;;;;;;;;6280352;22;20154;-59
2023/12/10 05:42:14;;;;;;;22.13;4.30;;;;;;;;;;6307237;22;20128;-57
2023/12/10 05:44:40;;;;;;;26.03;5.00;;;;;;;;;;6280946;22;20212;-58
2023/12/10 05:47:08;;;;;;;13.57;4.20;;;;;;;;;;6281464;22;20144;-57
2023/12/10 05:49:34;;;;;;;23.00;4.37;;;;;;;;;;6280847;22;20176;-58
2023/12/10 05:52:01;;;;;;;20.20;5.23;;;;;;;;;;6280846;22;20200;-59
2023/12/10 05:54:28;;;;;;;13.33;4.10;;;;;;;;;;6280391;22;20225;-59
2023/12/10 05:56:54;;;;;;;15.50;4.43;;;;;;;;;;6281768;22;20282;-59
2023/12/10 05:59:20;;;;;;;15.87;4.33;;;;;;;;;;6308774;22;20185;-57
2023/12/10 06:01:47;;;;;;;21.40;4.70;;;;;;;;;;6281080;22;20148;-58
2023/12/10 06:04:14;;;;;;;21.10;4.00;;;;;;;;;;6281551;22;20147;-59
2023/12/10 06:06:40;;;;;;;18.10;4.63;;;;;;;;;;6280908;22;20204;-59
2023/12/10 06:09:06;;;;;;;23.07;4.87;;;;;;;;;;6280299;22;20186;-59
2023/12/10 06:11:32;;;;;;;19.77;4.23;;;;;;;;;;6281383;22;20525;-59
2023/12/10 06:13:59;;;;;;;17.03;3.87;;;;;;;;;;6280929;22;20182;-59
2023/12/10 06:16:25;;;;;;;20.73;4.40;;;;;;;;;;6280351;22;20159;-59
2023/12/10 06:18:51;;;;;;;17.20;4.63;;;;;;;;;;6307307;22;20128;-59
2023/12/10 06:21:17;;;;;;;20.10;4.47;;;;;;;;;;6307605;22;20440;-59
2023/12/10 06:23:43;;;;;;;23.53;5.57;;;;;;;;;;6280793;22;20152;-59
2023/12/10 06:26:10;;;;;;;17.50;4.03;;;;;;;;;;6279560;22;20150;-58
2023/12/10 06:28:36;;;;;;;25.10;4.70;;;;;;;;;;6278511;22;20262;-56
2023/12/10 06:31:02;;;;;;;12.47;3.83;;;;;;;;;;6280607;22;20487;-57
2023/12/10 06:33:28;;;;;;;21.47;4.80;;;;;;;;;;6305851;22;20138;-58
2023/12/10 06:35:55;;;;;;;22.80;4.17;;;;;;;;;;6278657;22;20147;-58
2023/12/10 06:38:21;;;;;;;11.90;3.37;;;;;;;;;;6305758;22;20202;-57
2023/12/10 06:40:49;;;;;;;23.47;4.67;;;;;;;;;;6279833;22;20177;-57
2023/12/10 06:43:17;;;;;;;18.47;4.20;;;;;;;;;;6280237;22;20154;-57
2023/12/10 06:45:44;;;;;;;23.90;4.60;;;;;;;;;;6306669;22;20186;-59
2023/12/10 06:48:11;;;;;;;20.73;4.50;;;;;;;;;;6281543;22;20171;-58
2023/12/10 06:50:37;;;;;;;17.80;5.37;;;;;;;;;;6280630;22;20158;-58
2023/12/10 06:53:03;;;;;;;18.73;4.80;;;;;;;;;;6280766;22;20214;-58
2023/12/10 06:55:29;;;;;;;18.07;4.23;;;;;;;;;;6280083;22;20480;-58
2023/12/10 06:57:55;;;;;;;15.70;3.03;;;;;;;;;;6280175;22;20132;-59
2023/12/10 07:00:22;;;;;;;19.97;4.77;;;;;;;;;;6279514;22;20141;-58
2023/12/10 07:02:50;;;;;;;16.43;3.90;;;;;;;;;;6280032;22;20462;-58
2023/12/10 07:05:16;;;;;;;22.40;4.13;;;;;;;;;;6280514;22;20162;-58
2023/12/10 07:07:42;;;;;;;18.33;3.53;;;;;;;;;;6279773;22;20179;-59
2023/12/10 07:10:09;;;;;;;14.80;4.33;;;;;;;;;;6306043;22;20124;-59
2023/12/10 07:12:35;;;;;;;11.60;4.03;;;;;;;;;;6279838;22;20176;-58
2023/12/10 07:15:02;;;;;;;13.07;3.10;;;;;;;;;;6279488;22;20136;-58
2023/12/10 07:17:28;;;;;;;8.73;3.20;;;;;;;;;;6279129;22;20145;-58
2023/12/10 07:19:54;;;;;;;14.43;3.93;;;;;;;;;;6279136;22;20147;-57
2023/12/10 07:22:21;;;;;;;11.70;3.10;;;;;;;;;;6280233;22;20139;-59
2023/12/10 07:24:47;;;;;;;14.20;4.13;;;;;;;;;;6306968;22;20120;-54
2023/12/10 07:27:13;;;;;;;12.83;3.27;;;;;;;;;;6308705;22;20128;-56
2023/12/10 07:29:39;;;;;;;11.47;3.23;;;;;;;;;;6281920;22;20219;-58
2023/12/10 07:32:06;;;;;;;17.77;4.23;;;;;;;;;;6308295;22;20128;-59
2023/12/10 07:34:32;;;;;;;14.83;3.37;;;;;;;;;;6279585;22;20136;-59
2023/12/10 07:36:58;;;;;;;14.37;3.70;;;;;;;;;;6279543;22;20152;-56
2023/12/10 07:39:25;;;;;;;11.10;2.93;;;;;;;;;;6307179;22;20199;-59
2023/12/10 07:41:51;;;;;;;15.53;3.23;;;;;;;;;;6281369;22;20204;-58
2023/12/10 07:44:17;;;;;;;10.77;2.73;;;;;;;;;;6280799;22;20146;-59
2023/12/10 07:46:43;;;;;;;15.30;3.00;;;;;;;;;;6280381;22;20378;-58
2023/12/10 07:49:10;;;;;;;7.77;2.47;;;;;;;;;;6280789;22;20266;-59
2023/12/10 07:51:36;;;;;;;12.70;3.17;;;;;;;;;;6280982;22;20525;-58
2023/12/10 07:54:02;;;;;;;13.10;2.63;;;;;;;;;;6279789;22;20144;-57
2023/12/10 07:56:28;;;;;;;8.80;2.40;;;;;;;;;;6279831;22;20140;-56
2023/12/10 07:58:54;;;;;;;9.70;3.07;;;;;;;;;;6280140;22;20532;-58
2023/12/10 08:01:20;;;;;;;11.47;2.80;;;;;;;;;;6279374;22;20143;-57
2023/12/10 08:03:47;;;;;;;7.77;2.40;;;;;;;;;;6305620;22;20138;-57
2023/12/10 08:06:13;;;;;;;12.80;3.60;;;;;;;;;;6279050;22;20151;-59
2023/12/10 08:08:39;;;;;;;10.20;2.70;;;;;;;;;;6305186;22;20159;-58
2023/12/10 08:11:05;;;;;;;9.10;2.70;;;;;;;;;;6279530;22;20140;-56
2023/12/10 08:13:32;;;;;;;8.23;2.20;;;;;;;;;;6280769;22;20136;-59
2023/12/10 08:15:58;;;;;;;8.30;2.60;;;;;;;;;;6279287;22;20214;-59
2023/12/10 08:18:27;;;;;;;7.63;1.70;;;;;;;;;;6278968;22;20139;-60
2023/12/10 08:20:54;;;;;;;7.07;2.33;;;;;;;;;;6280754;22;20151;-58
2023/12/10 08:23:20;;;;;;;7.80;2.30;;;;;;;;;;6279679;22;20148;-58
2023/12/10 08:25:46;;;;;;;6.73;2.27;;;;;;;;;;6279328;22;20226;-58
2023/12/10 08:28:12;;;;;;;11.10;3.77;;;;;;;;;;6280436;22;20201;-58
2023/12/10 08:30:38;;;;;;;11.00;2.37;;;;;;;;;;6280397;22;20516;-59
2023/12/10 08:33:04;;;;;;;10.90;2.63;;;;;;;;;;6304118;22;20128;-59
2023/12/10 08:35:31;;;;;;;9.10;2.27;;;;;;;;;;6278505;22;20144;-59
2023/12/10 08:37:57;;;;;;;5.33;2.07;;;;;;;;;;6278432;22;20499;-57
2023/12/10 08:40:24;;;;;;;15.50;2.53;;;;;;;;;;6305180;22;20157;-59
2023/12/10 08:42:50;;;;;;;8.77;2.20;;;;;;;;;;6277546;22;20139;-58
2023/12/10 08:45:16;;;;;;;12.73;3.00;;;;;;;;;;6304760;22;20128;-59
2023/12/10 08:47:43;;;;;;;7.53;1.80;;;;;;;;;;6277588;22;20214;-59
2023/12/10 08:50:09;;;;;;;7.37;2.20;;;;;;;;;;6280138;22;20148;-59
2023/12/10 08:52:35;;;;;;;7.87;2.20;;;;;;;;;;6306960;22;20596;-59
2023/12/10 08:55:02;;;;;;;9.70;2.40;;;;;;;;;;6281854;22;20272;-59
2023/12/10 08:57:31;;;;;;;7.00;2.23;;;;;;;;;;6281846;22;20140;-59
2023/12/10 09:00:00;;;;;;;11.50;3.27;;;;;;;;;;6281400;22;20143;-59
2023/12/10 09:02:27;;;;;;;4.97;2.03;;;;;;;;;;6306802;22;20148;-55
2023/12/10 09:04:53;;;;;;;11.23;2.23;;;;;;;;;;6306754;22;20138;-60
2023/12/10 09:07:20;;;;;;;7.30;1.93;;;;;;;;;;6279231;22;20155;-58
2023/12/10 09:09:46;;;;;;;8.23;2.70;;;;;;;;;;6278116;22;20163;-58
2023/12/10 09:12:12;;;;;;;9.17;2.73;;;;;;;;;;6278594;22;20136;-58
2023/12/10 09:14:38;;;;;;;8.03;2.13;;;;;;;;;;6277394;22;20485;-56
2023/12/10 09:17:09;;;;;;;3.87;1.77;;;;;;;;;;6278716;22;20219;-57
2023/12/10 09:19:35;;;;;;;4.60;2.17;;;;;;;;;;6279581;22;20144;-59
2023/12/10 09:22:03;;;;;;;5.40;2.17;;;;;;;;;;6306591;22;20151;-59
2023/12/10 09:24:29;;;;;;;5.70;1.90;;;;;;;;;;6277611;22;20170;-59
2023/12/10 09:26:56;;;;;;;3.23;1.80;;;;;;;;;;6277408;22;20490;-57
2023/12/10 09:29:22;;;;;;;5.37;1.70;;;;;;;;;;6304261;22;20155;-57
2023/12/10 09:31:48;;;;;;;5.70;1.93;;;;;;;;;;6276150;22;20163;-59
2023/12/10 09:34:14;;;;;;;8.27;2.20;;;;;;;;;;6276131;22;20143;-59
2023/12/10 09:36:40;;;;;;;8.53;2.07;;;;;;;;;;6303199;22;20140;-59
2023/12/10 09:39:07;;;;;;;7.60;2.33;;;;;;;;;;6272427;22;20195;-59
2023/12/10 09:41:34;;;;;;;9.27;1.37;;;;;;;;;;6270522;22;20154;-57
2023/12/10 09:44:00;;;;;;;4.07;1.67;;;;;;;;;;6271519;22;20612;-58
2023/12/10 09:46:27;;;;;;;3.43;1.60;;;;;;;;;;6271244;22;20204;-58
2023/12/10 09:48:53;;;;;;;4.40;1.67;;;;;;;;;;6272689;22;20157;-59
2023/12/10 09:51:19;;;;;;;8.93;2.17;;;;;;;;;;6270852;22;20148;-58
2023/12/10 09:53:46;;;;;;;3.10;1.60;;;;;;;;;;6269858;22;20231;-59
2023/12/10 09:56:12;;;;;;;6.37;2.43;;;;;;;;;;6271429;22;20147;-58
2023/12/10 09:58:38;;;;;;;8.50;1.97;;;;;;;;;;6272211;22;20286;-58
2023/12/10 10:01:07;;;;;;;5.40;1.93;;;;;;;;;;6272726;22;20459;-58
2023/12/10 10:03:37;;;;;;;3.37;1.43;;;;;;;;;;6272686;22;20148;-58
2023/12/10 10:06:03;;;;;;;4.57;1.80;;;;;;;;;;6272592;22;20650;-57
2023/12/10 10:08:30;;;;;;;4.70;2.00;;;;;;;;;;6272481;22;20199;-58
2023/12/10 10:10:56;;;;;;;4.73;1.77;;;;;;;;;;6271866;22;20140;-58
2023/12/10 10:13:22;;;;;;;4.57;1.90;;;;;;;;;;6271249;22;20136;-56
2023/12/10 10:15:48;;;;;;;5.10;2.23;;;;;;;;;;6270599;22;20223;-59
2023/12/10 10:18:15;;;;;;;2.77;1.47;;;;;;;;;;6271573;22;20129;-59
2023/12/10 10:20:42;;;;;;;5.87;2.33;;;;;;;;;;6273041;22;20159;-58
2023/12/10 10:23:08;;;;;;;7.17;1.90;;;;;;;;;;6272564;22;20197;-59
2023/12/10 10:25:34;;;;;;;3.07;1.50;;;;;;;;;;6272058;22;20152;-57
2023/12/10 10:28:01;;;;;;;7.40;2.30;;;;;;;;;;6272213;22;20171;-59
2023/12/10 10:30:27;;;;;;;5.27;2.37;;;;;;;;;;6273581;22;20144;-58
2023/12/10 10:32:55;;;;;;;4.70;1.80;;;;;;;;;;6274056;22;20183;-58
2023/12/10 10:35:21;;;;;;;5.73;1.43;;;;;;;;;;6272602;22;20148;-58
2023/12/10 10:37:48;;;;;;;6.00;1.60;;;;;;;;;;6280129;22;20328;-56
2023/12/10 10:40:14;;;;;;;5.80;1.40;;;;;;;;;;6277852;22;20194;-57
2023/12/10 10:42:40;;;;;;;3.70;1.20;;;;;;;;;;6302208;22;20148;-57
2023/12/10 10:45:07;;;;;;;2.70;1.17;;;;;;;;;;6303293;22;20150;-58
2023/12/10 10:47:34;;;;;;;3.60;1.23;;;;;;;;;;6277831;22;20135;-56
2023/12/10 10:50:02;;;;;;;3.33;2.37;;;;;;;;;;6277423;22;20132;-56
2023/12/10 10:52:30;;;;;;;2.47;1.20;;;;;;;;;;6304335;22;20139;-58
2023/12/10 10:54:57;;;;;;;2.13;1.37;;;;;;;;;;6304259;22;20160;-56
2023/12/10 10:57:36;;;;;;;2.07;1.57;;;;;;;;;;6276569;22;20136;-56
2023/12/10 11:00:17;;;;;;;4.73;1.77;;;;;;;;;;6276505;22;20146;-59
2023/12/10 11:03:10;;;;;;;4.07;1.47;;;;;;;;;;6274810;22;20190;-57
2023/12/10 11:05:36;;;;;;;3.87;1.60;;;;;;;;;;6270369;22;20670;-58
2023/12/10 11:08:07;;;;;;;3.40;1.50;;;;;;;;;;6274654;22;20250;-60
2023/12/10 11:10:34;;;;;;;5.17;1.83;;;;;;;;;;6269119;22;20192;-57
2023/12/10 11:13:00;;;;;;;4.17;1.50;;;;;;;;;;6301077;22;20132;-57
2023/12/10 11:15:27;;;;;;;5.30;1.90;;;;;;;;;;6275971;22;20475;-57
2023/12/10 11:17:57;;;;;;;2.20;1.70;;;;;;;;;;6301633;22;20254;-59
2023/12/10 11:20:34;;;;;;;2.30;1.50;;;;;;;;;;6275786;22;20236;-54
2023/12/10 11:23:04;;;;;;;2.43;1.53;;;;;;;;;;6276195;22;20143;-59
2023/12/10 11:25:31;;;;;;;3.97;2.40;;;;;;;;;;6275888;22;20592;-58
2023/12/10 11:27:57;;;;;;;4.67;2.13;;;;;;;;;;6275240;22;20167;-59
2023/12/10 11:30:24;;;;;;;2.03;1.47;;;;;;;;;;6274254;22;20430;-60
2023/12/10 11:32:50;;;;;;;4.47;2.03;;;;;;;;;;6272681;22;20704;-60
2023/12/10 11:35:17;;;;;;;2.80;1.70;;;;;;;;;;6273867;22;20150;-61
2023/12/10 11:37:43;;;;;;;3.30;1.77;;;;;;;;;;6299073;22;20183;-60
2023/12/10 11:40:09;;;;;;;4.50;1.87;;;;;;;;;;6299355;22;20135;-60
2023/12/10 11:42:35;;;;;;;3.57;1.60;;;;;;;;;;6274065;22;20144;-60
2023/12/10 11:45:02;;;;;;;5.03;1.97;;;;;;;;;;6299891;22;20120;-61
2023/12/10 11:47:28;;;;;;;6.60;2.00;;;;;;;;;;6271231;22;20200;-61
2023/12/10 11:49:57;;;;;;;4.07;1.80;;;;;;;;;;6273928;22;20251;-60
2023/12/10 11:52:24;;;;;;;7.10;1.97;;;;;;;;;;6272546;22;20236;-61
2023/12/10 11:54:51;;;;;;;4.03;1.80;;;;;;;;;;6272006;22;20506;-57
2023/12/10 11:57:17;;;;;;;9.60;3.00;;;;;;;;;;6273764;22;20146;-59
2023/12/10 11:59:51;;;;;;;3.93;1.73;;;;;;;;;;6300430;22;20157;-58
2023/12/10 12:02:17;;;;;;;5.57;1.40;;;;;;;;;;6274014;22;20140;-59
2023/12/10 12:04:43;;;;;;;4.73;1.80;;;;;;;;;;6299704;22;20128;-58
2023/12/10 12:07:26;;;;;;;6.63;2.13;;;;;;;;;;6274205;22;20193;-59
2023/12/10 12:09:52;;;;;;;3.60;2.07;;;;;;;;;;6275631;22;20239;-58
2023/12/10 12:12:22;;;;;;;7.10;2.33;;;;;;;;;;6277102;22;20140;-59
2023/12/10 12:14:51;;;;;;;4.60;1.70;;;;;;;;;;6304984;22;20202;-59
2023/12/10 12:17:19;;;;;;;7.33;2.50;;;;;;;;;;6278418;22;20139;-58
2023/12/10 12:19:45;;;;;;;5.47;1.87;;;;;;;;;;6279324;22;20139;-57
2023/12/10 12:22:11;;;;;;;11.33;3.13;;;;;;;;;;6279217;22;20240;-59
2023/12/10 12:24:43;;;;;;;6.60;2.17;;;;;;;;;;6278548;22;20196;-58
2023/12/10 12:27:12;;;;;;;10.03;2.43;;;;;;;;;;6279170;22;20618;-58
2023/12/10 12:29:39;;;;;;;7.17;1.80;;;;;;;;;;6253579;22;20171;-59
2023/12/10 12:32:06;;;;;;;8.50;2.33;;;;;;;;;;6277307;22;20135;-58
2023/12/10 12:34:33;;;;;;;5.40;1.90;;;;;;;;;;6278665;22;20147;-58
2023/12/10 12:37:00;;;;;;;7.27;2.17;;;;;;;;;;6302226;22;20146;-58
2023/12/10 12:39:26;;;;;;;5.77;2.17;;;;;;;;;;6272024;22;20199;-58
2023/12/10 12:41:53;;;;;;;10.13;1.77;;;;;;;;;;6272542;22;20164;-58
2023/12/10 12:44:19;;;;;;;8.73;2.23;;;;;;;;;;6270685;22;20129;-59
2023/12/10 12:46:46;;;;;;;8.80;1.87;;;;;;;;;;6270930;22;20162;-59
2023/12/10 12:49:13;;;;;;;8.77;1.80;;;;;;;;;;6270869;22;20183;-57
2023/12/10 12:51:39;;;;;;;6.23;1.83;;;;;;;;;;6271723;22;20174;-59
2023/12/10 12:54:06;;;;;;;9.40;2.90;;;;;;;;;;6270189;22;20144;-57
2023/12/10 12:56:33;;;;;;;9.27;2.63;;;;;;;;;;6272808;22;20212;-59
2023/12/10 12:59:00;;;;;;;8.00;2.87;;;;;;;;;;6273848;22;20144;-55
2023/12/10 13:01:26;;;;;;;12.57;2.73;;;;;;;;;;6271874;22;20148;-54
2023/12/10 13:03:53;;;;;;;13.80;2.50;;;;;;;;;;6272746;22;20562;-59
2023/12/10 13:06:19;;;;;;;12.57;2.40;;;;;;;;;;6271484;22;20163;-57
2023/12/10 13:08:49;;;;;;;11.07;3.20;;;;;;;;;;6272027;22;20233;-58
2023/12/10 13:11:15;;;;;;;13.83;3.33;;;;;;;;;;6272660;22;20528;-59
2023/12/10 13:13:41;;;;;;;12.13;3.00;;;;;;;;;;6273754;22;20141;-58
2023/12/10 13:16:07;;;;;;;14.73;3.63;;;;;;;;;;6270358;22;20148;-59
2023/12/10 13:18:34;;;;;;;12.10;2.83;;;;;;;;;;6271618;22;20223;-57
2023/12/10 13:21:00;;;;;;;18.33;4.07;;;;;;;;;;6271953;22;20140;-57
2023/12/10 13:23:26;;;;;;;13.20;3.10;;;;;;;;;;6270230;22;20211;-55
2023/12/10 13:25:54;;;;;;;16.30;2.97;;;;;;;;;;6270477;22;20167;-56
2023/12/10 13:28:20;;;;;;;15.70;3.00;;;;;;;;;;6268734;22;20175;-58
2023/12/10 13:30:47;;;;;;;13.17;3.13;;;;;;;;;;6270079;22;20151;-56
2023/12/10 13:33:13;;;;;;;15.33;2.57;;;;;;;;;;6268766;22;20611;-56
2023/12/10 13:35:39;;;;;;;11.03;2.97;;;;;;;;;;6268754;22;20601;-58
2023/12/10 13:38:05;;;;;;;11.93;2.90;;;;;;;;;;6267448;22;20200;-59
2023/12/10 13:40:31;;;;;;;11.43;2.83;;;;;;;;;;6268391;22;20425;-57
2023/12/10 13:43:01;;;;;;;10.37;2.80;;;;;;;;;;6269253;22;20167;-58
2023/12/10 13:45:29;;;;;;;9.03;2.63;;;;;;;;;;6270149;22;20182;-58
2023/12/10 13:47:55;;;;;;;12.17;3.27;;;;;;;;;;6269604;22;20155;-58
2023/12/10 13:50:21;;;;;;;12.73;2.67;;;;;;;;;;6269191;22;20132;-58
2023/12/10 13:52:49;;;;;;;9.60;2.20;;;;;;;;;;6268787;22;20167;-55
2023/12/10 13:55:16;;;;;;;5.93;2.50;;;;;;;;;;6269692;22;20205;-58
2023/12/10 13:57:42;;;;;;;3.33;1.67;;;;;;;;;;6269963;22;20151;-58
2023/12/10 14:00:11;;;;;;;7.20;1.70;;;;;;;;;;6268161;22;20140;-59
2023/12/10 14:02:37;;;;;;;4.07;1.87;;;;;;;;;;6269080;22;20529;-58
2023/12/10 14:05:07;;;;;;;4.60;1.80;;;;;;;;;;6268732;22;20144;-55
2023/12/10 14:07:33;;;;;;;4.90;1.30;;;;;;;;;;6270438;22;20164;-59
2023/12/10 14:10:00;;;;;;;5.83;1.37;;;;;;;;;;6266266;22;20262;-58
2023/12/10 14:12:26;;;;;;;2.80;1.40;;;;;;;;;;6266425;22;20171;-59
2023/12/10 14:14:54;;;;;;;5.27;1.70;;;;;;;;;;6268861;22;20136;-59
2023/12/10 14:17:20;;;;;;;1.97;0.97;;;;;;;;;;6268278;22;20149;-56
2023/12/10 14:19:47;;;;;;;2.10;1.13;;;;;;;;;;6266773;22;20144;-58
2023/12/10 14:22:14;;;;;;;1.90;0.80;;;;;;;;;;6268248;22;20167;-59
2023/12/10 14:24:40;;;;;;;0.97;0.70;;;;;;;;;;6268221;22;20766;-58
2023/12/10 14:27:06;;;;;;;1.70;0.77;;;;;;;;;;6270758;22;20237;-59
2023/12/10 14:29:32;;;;;;;2.20;0.77;;;;;;;;;;6269986;22;20167;-58
2023/12/10 14:32:00;;;;;;;1.60;0.90;;;;;;;;;;6270488;22;20510;-58
2023/12/10 14:34:26;;;;;;;4.03;1.10;;;;;;;;;;6271589;22;20140;-59
2023/12/10 14:36:55;;;;;;;4.57;1.93;;;;;;;;;;6271119;22;20125;-59